Elon, NC

13:29 EST le 26 novembre 2014 (GMT -0500)
Burlington-Alamance Regional | Change Station
CLOSE
Current Station
Aéroport
Location: Burlington,
Altitude: 617 ft
Stations météo à proximité

Alt. 617 ft 36.05 °N, 79.47 °W | Updated 7 minutes ago

Couvert
Couvert
41 ° F
Paraît 35 ° F
N
10
Vent Variable Vent de ONO
Gusts 20 mph

Aujourd'hui
Haut(e) -- | Bas -- ° F
--% Risque de précip.
Hier
Haut(e) -- | Bas -- ° F
Precip. -- pouce
7:05 AM 5:04 PM
Lune montante, 21% visible
Pression 29.96 pouce
Visibilité 10.0 Miles terrestres
Nuages Peu 900 ft
Nuageux 1300 ft
Couvert 4400 ft
Refroidissement éolien 35 ° F
Point de rosée 37 ° F
Humidité 86%
Précipitations 1.06 pouce
Profondeur de la couche neigeuse Non disponible.
UV 1 sur 12
Pollen .30 sur 12
Qualité de l'air Non disponible.
Flu Activity Non disponible.
SPECI KBUY 261822Z AUTO 30009G17KT 10SM -RA FEW009 BKN013 OVC044 05/03 A2996 RMK AO2 P0001 T00500028

More Conditions Fewer Conditions

Pression 29.96 pouce
Visibilité 10.0 Miles terrestres
Nuages Peu 900 ft
Nuageux 1300 ft
Couvert 4400 ft
Refroidissement éolien 35 ° F
Point de rosée 37 ° F
Humidité 86%
Précipitations 1.06 pouce
Profondeur de la couche neigeuse Non disponible.
UV 1 sur 12
Pollen .30 sur 12
Qualité de l'air Non disponible.
Flu Activity Non disponible.
SPECI KBUY 261822Z AUTO 30009G17KT 10SM -RA FEW009 BKN013 OVC044 05/03 A2996 RMK AO2 P0001 T00500028

More Conditions Fewer Conditions

10-Day Weather Forecast

Almanac

Astronomie

Nov. 26, 2014 Lever Coucher
Temps réel
Crépuscule civil
Crépuscule nautique
Crépuscule astronomique
Lune
Durée de lumière visible
Longueur du jour
Tomorrow will be .
, % of the Moon is Illuminated

Extrêmes aujourd'hui

State Highs State Lows

Community

WunderPhotos

Upload Photos

1,773,822 Photos téléchargées !

WunderBlogs® & News

Nearby

Qualité de l'air

  Qualité de l'air Indice de la qualité de l'air Polluant
Not available.

Épaisseur de neige

Station Depth Altitude

Activité sismique

Ville Distance Mag. Time & Date
Minimum magnitude displayed is 2.5.

Températures des eaux côtières

Lieu Température

Stations météo à proximité